createdAt,value
2022-12-31T00:05:22.612Z,0.60
2022-12-31T00:11:26.885Z,0.50
2022-12-31T00:17:31.700Z,0.60
2022-12-31T00:23:35.156Z,0.40
2022-12-31T00:29:38.589Z,0.40
2022-12-31T00:35:43.380Z,0.68
2022-12-31T00:41:46.789Z,0.20
2022-12-31T00:47:50.401Z,0.30
2022-12-31T00:53:55.288Z,0.10
2022-12-31T00:59:58.749Z,0.40
2022-12-31T01:06:02.456Z,0.35
2022-12-31T01:12:07.879Z,0.30
2022-12-31T01:18:11.292Z,0.25
2022-12-31T01:24:15.017Z,0.30
2022-12-31T01:30:19.840Z,0.40
2022-12-31T01:36:26.171Z,0.28
2022-12-31T01:42:29.989Z,0.40
2022-12-31T01:48:34.902Z,0.43
2022-12-31T01:54:41.619Z,0.85
2022-12-31T02:00:45.435Z,1.27
2022-12-31T02:06:52.152Z,1.27
2022-12-31T02:12:55.552Z,1.08
2022-12-31T02:19:02.266Z,1.05
2022-12-31T02:25:16.042Z,0.90
2022-12-31T02:31:26.280Z,0.60
2022-12-31T02:37:31.461Z,0.63
2022-12-31T02:43:34.825Z,0.50
2022-12-31T02:49:44.592Z,0.63
2022-12-31T02:55:52.134Z,0.40
2022-12-31T03:02:12.189Z,0.50
2022-12-31T03:08:23.936Z,0.40
2022-12-31T03:14:27.522Z,0.30
2022-12-31T03:21:05.238Z,0.32
2022-12-31T03:27:10.097Z,0.35
2022-12-31T03:33:13.726Z,0.35
2022-12-31T03:39:17.129Z,0.30
2022-12-31T03:45:22.240Z,0.40
2022-12-31T03:51:25.750Z,0.30
2022-12-31T03:57:29.292Z,0.50
2022-12-31T04:03:34.033Z,0.22
2022-12-31T04:09:37.399Z,0.40
2022-12-31T04:15:40.823Z,0.43
2022-12-31T04:21:45.628Z,0.47
2022-12-31T04:27:49.253Z,0.55
2022-12-31T04:33:52.786Z,0.43
2022-12-31T04:40:03.502Z,0.30
2022-12-31T04:46:09.328Z,0.47
2022-12-31T04:52:12.727Z,0.22
2022-12-31T04:58:17.584Z,0.30
2022-12-31T05:04:21.490Z,0.32
2022-12-31T05:10:25.388Z,0.40
2022-12-31T05:16:30.222Z,0.40
2022-12-31T05:22:33.612Z,0.30
2022-12-31T05:28:37.005Z,0.40
2022-12-31T05:34:41.912Z,0.25
2022-12-31T05:40:45.284Z,0.30
2022-12-31T05:46:48.705Z,0.35
2022-12-31T05:52:53.578Z,0.32
2022-12-31T05:58:56.970Z,0.30
2022-12-31T06:05:00.365Z,0.20
2022-12-31T06:11:05.129Z,0.20
2022-12-31T06:17:08.514Z,0.30
2022-12-31T06:23:12.326Z,0.15
2022-12-31T06:29:17.495Z,0.65
2022-12-31T06:35:20.867Z,0.47
2022-12-31T06:41:24.346Z,0.30
2022-12-31T06:47:29.092Z,0.30
2022-12-31T06:53:32.465Z,0.10
2022-12-31T06:59:36.102Z,0.30
2022-12-31T07:05:43.941Z,0.50
2022-12-31T07:11:55.484Z,0.32
2022-12-31T07:18:00.305Z,0.30
2022-12-31T07:24:07.245Z,0.20
2022-12-31T07:30:13.339Z,0.40
2022-12-31T07:36:23.508Z,0.47
2022-12-31T07:42:32.427Z,0.60
2022-12-31T07:48:36.280Z,0.57
2022-12-31T07:54:39.645Z,0.52
2022-12-31T08:00:44.672Z,0.60
2022-12-31T08:06:52.479Z,0.40
2022-12-31T08:12:58.536Z,0.28
2022-12-31T08:19:03.556Z,0.60
2022-12-31T08:25:14.683Z,0.60
2022-12-31T08:31:19.725Z,0.52
2022-12-31T08:37:28.007Z,0.50
2022-12-31T08:43:41.911Z,0.50
2022-12-31T08:49:45.535Z,0.60
2022-12-31T08:55:51.654Z,0.43
2022-12-31T09:02:12.693Z,0.40
2022-12-31T09:08:20.262Z,0.40
2022-12-31T09:14:34.498Z,0.60
2022-12-31T09:20:45.312Z,0.80
2022-12-31T09:26:52.491Z,0.70
2022-12-31T09:33:01.330Z,0.50
2022-12-31T09:39:09.561Z,0.82
2022-12-31T09:45:30.910Z,0.50
2022-12-31T09:51:40.398Z,1.02
2022-12-31T09:57:46.265Z,0.90
2022-12-31T10:04:10.674Z,0.73
2022-12-31T10:10:18.296Z,0.80
2022-12-31T10:16:42.782Z,1.05
2022-12-31T10:22:50.839Z,1.25
2022-12-31T10:28:57.487Z,1.27
2022-12-31T10:35:03.543Z,1.30
2022-12-31T10:41:26.106Z,1.15
2022-12-31T10:48:03.672Z,1.33
2022-12-31T10:54:31.034Z,1.02
2022-12-31T11:00:36.934Z,1.10
2022-12-31T11:06:55.289Z,0.90
2022-12-31T11:13:13.665Z,0.85
2022-12-31T11:19:23.695Z,0.90
2022-12-31T11:25:31.929Z,1.90
2022-12-31T11:31:42.807Z,1.23
2022-12-31T11:37:49.829Z,0.80
2022-12-31T11:43:55.238Z,0.77
2022-12-31T11:50:05.405Z,0.85
2022-12-31T11:56:18.523Z,0.63
2022-12-31T12:02:27.189Z,1.02
2022-12-31T12:08:33.450Z,0.68
2022-12-31T12:14:39.465Z,1.30
2022-12-31T12:20:43.561Z,1.00
2022-12-31T12:26:47.542Z,1.08
2022-12-31T12:32:56.410Z,1.20
2022-12-31T12:39:03.768Z,1.15
2022-12-31T12:45:08.778Z,1.33
2022-12-31T12:51:17.390Z,2.08
2022-12-31T12:57:23.148Z,1.80
2022-12-31T13:04:23.411Z,1.15
2022-12-31T13:10:24.306Z,1.30
2022-12-31T13:16:32.685Z,1.20
2022-12-31T13:22:39.855Z,1.40
2022-12-31T13:28:45.376Z,1.70
2022-12-31T13:34:51.353Z,1.90
2022-12-31T13:40:58.858Z,2.08
2022-12-31T13:47:06.257Z,1.75
2022-12-31T13:53:16.076Z,1.77
2022-12-31T13:59:22.799Z,1.85
2022-12-31T14:05:31.269Z,1.92
2022-12-31T14:11:47.188Z,2.13
2022-12-31T14:17:55.687Z,1.52
2022-12-31T14:24:03.423Z,1.40
2022-12-31T14:30:08.735Z,1.63
2022-12-31T14:36:19.199Z,1.80
2022-12-31T14:42:28.269Z,1.85
2022-12-31T14:48:38.345Z,1.80
2022-12-31T14:54:41.826Z,1.80
2022-12-31T15:00:55.779Z,2.40
2022-12-31T15:07:01.619Z,1.60
2022-12-31T15:13:07.021Z,1.95
2022-12-31T15:19:43.733Z,3.90
2022-12-31T15:25:50.416Z,2.72
2022-12-31T15:31:54.390Z,2.83
2022-12-31T15:38:01.600Z,3.83
2022-12-31T15:44:13.601Z,2.25
2022-12-31T15:50:18.736Z,2.38
2022-12-31T15:56:24.262Z,2.40
2022-12-31T16:02:29.950Z,1.73
2022-12-31T16:08:35.074Z,1.98
2022-12-31T16:14:39.849Z,2.63
2022-12-31T16:20:46.071Z,2.47
2022-12-31T16:26:50.953Z,2.42
2022-12-31T16:32:55.694Z,2.53
2022-12-31T16:39:12.404Z,1.90
2022-12-31T16:45:20.389Z,2.40
2022-12-31T16:51:26.345Z,1.67
2022-12-31T16:57:32.797Z,2.13
2022-12-31T17:03:44.201Z,1.83
2022-12-31T17:09:47.843Z,1.75
2022-12-31T17:15:53.374Z,1.85
2022-12-31T17:21:56.861Z,1.88
2022-12-31T17:28:01.243Z,1.67
2022-12-31T17:34:23.344Z,2.50
2022-12-31T17:40:50.975Z,2.88
2022-12-31T17:46:56.732Z,2.38
2022-12-31T17:53:01.711Z,3.13
2022-12-31T17:59:07.463Z,2.00
2022-12-31T18:05:15.818Z,2.38
2022-12-31T18:11:20.438Z,2.35
2022-12-31T18:17:25.280Z,2.67
2022-12-31T18:23:30.034Z,2.55
2022-12-31T18:29:33.534Z,2.00
2022-12-31T18:36:07.648Z,2.30
2022-12-31T18:42:02.327Z,2.05
2022-12-31T18:48:05.767Z,2.50
2022-12-31T18:54:12.818Z,2.00
2022-12-31T19:00:16.634Z,2.03
2022-12-31T19:06:20.093Z,2.40
2022-12-31T19:12:24.867Z,2.55
2022-12-31T19:18:28.328Z,2.17
2022-12-31T19:24:31.829Z,2.35
2022-12-31T19:30:36.785Z,2.20
2022-12-31T19:36:44.020Z,2.10
2022-12-31T19:42:48.178Z,3.15
2022-12-31T19:48:53.896Z,2.25
2022-12-31T19:54:57.328Z,2.78
2022-12-31T20:01:03.299Z,2.38
2022-12-31T20:07:08.301Z,3.85
2022-12-31T20:13:11.741Z,2.40
2022-12-31T20:19:15.733Z,2.42
2022-12-31T20:25:21.053Z,2.53
2022-12-31T20:31:25.803Z,2.90
2022-12-31T20:37:29.175Z,2.58
2022-12-31T20:43:33.971Z,2.88
2022-12-31T20:50:09.855Z,2.65
2022-12-31T20:56:05.275Z,2.53
2022-12-31T21:02:22.102Z,3.05
2022-12-31T21:08:34.372Z,2.97
2022-12-31T21:14:44.418Z,2.88
2022-12-31T21:20:50.155Z,2.70
2022-12-31T21:26:53.877Z,2.50
2022-12-31T21:32:57.253Z,2.78
2022-12-31T21:39:02.652Z,2.50
2022-12-31T21:45:06.620Z,2.90
2022-12-31T21:51:12.918Z,2.58
2022-12-31T21:57:17.790Z,2.78
2022-12-31T22:03:28.336Z,2.60
2022-12-31T22:09:31.868Z,2.50
2022-12-31T22:15:36.658Z,2.95
2022-12-31T22:21:40.100Z,2.60
2022-12-31T22:27:53.096Z,2.97
2022-12-31T22:34:08.430Z,2.92
2022-12-31T22:40:12.390Z,2.40
2022-12-31T22:46:17.012Z,2.35
2022-12-31T22:52:21.774Z,3.47
2022-12-31T22:58:26.184Z,3.45
2022-12-31T23:04:32.547Z,2.60
2022-12-31T23:10:55.995Z,4.93
2022-12-31T23:17:29.565Z,3.53
2022-12-31T23:23:34.284Z,2.70
2022-12-31T23:29:46.595Z,2.38
2022-12-31T23:35:50.837Z,2.15
2022-12-31T23:41:54.916Z,2.58
2022-12-31T23:48:00.347Z,2.67
2022-12-31T23:54:03.907Z,2.20
